Time;durP1;ratioP1;P1;durP2;ratioP2;P2;SDS_P1;SDS_P2;PMS_P1;PMS_P2;Temp;Humidity;BMP_temperature;BMP_pressure;BME280_temperature;BME280_humidity;BME280_pressure;Samples;Min_cycle;Max_cycle;Signal;HPM_P1;HPM_P2
2021/06/05 00:01:31;;;;;;;31.23;23.38;;;;;;;;;;5013537;28;20421;-67
2021/06/05 00:03:59;;;;;;;32.03;24.48;;;;;;;;;;5031717;28;20059;-67
2021/06/05 00:06:27;;;;;;;28.85;22.75;;;;;;;;;;5015646;28;20029;-68
2021/06/05 00:08:53;;;;;;;27.67;22.55;;;;;;;;;;5033749;28;20265;-67
2021/06/05 00:11:21;;;;;;;27.63;22.40;;;;;;;;;;5033688;28;20025;-70
2021/06/05 00:13:48;;;;;;;29.55;22.67;;;;;;;;;;5033162;28;20397;-68
2021/06/05 00:16:18;;;;;;;31.75;23.50;;;;;;;;;;5016027;28;20397;-67
2021/06/05 00:18:45;;;;;;;28.02;22.50;;;;;;;;;;5015939;28;20041;-68
2021/06/05 00:21:12;;;;;;;32.97;24.30;;;;;;;;;;5033705;28;20360;-67
2021/06/05 00:23:38;;;;;;;30.20;22.25;;;;;;;;;;5015683;28;20029;-67
2021/06/05 00:26:05;;;;;;;27.80;22.85;;;;;;;;;;5016076;28;20384;-68
2021/06/05 00:28:31;;;;;;;29.73;21.48;;;;;;;;;;5033459;28;20117;-67
2021/06/05 00:30:57;;;;;;;27.77;22.23;;;;;;;;;;5015771;28;20029;-68
2021/06/05 00:33:24;;;;;;;28.52;20.85;;;;;;;;;;5015642;28;20025;-67
2021/06/05 00:35:50;;;;;;;28.98;23.70;;;;;;;;;;5016496;28;20029;-66
2021/06/05 00:38:17;;;;;;;31.63;23.30;;;;;;;;;;5016722;28;20037;-68
2021/06/05 00:40:44;;;;;;;31.15;23.98;;;;;;;;;;5017225;28;20473;-69
2021/06/05 00:43:11;;;;;;;31.77;25.70;;;;;;;;;;5034578;28;20474;-71
2021/06/05 00:45:41;;;;;;;31.52;25.52;;;;;;;;;;5034197;28;20272;-66
2021/06/05 00:48:07;;;;;;;31.45;25.17;;;;;;;;;;5033611;28;20029;-68
2021/06/05 00:50:34;;;;;;;33.15;26.20;;;;;;;;;;5016127;28;20104;-66
2021/06/05 00:53:00;;;;;;;32.22;25.58;;;;;;;;;;5015649;28;20029;-66
2021/06/05 00:55:27;;;;;;;34.42;28.20;;;;;;;;;;5016317;28;20473;-68
2021/06/05 00:57:53;;;;;;;37.97;30.30;;;;;;;;;;5034407;28;20405;-69
2021/06/05 01:00:31;;;;;;;39.92;30.90;;;;;;;;;;5016660;28;20463;-67
2021/06/05 01:02:59;;;;;;;46.00;36.22;;;;;;;;;;5033433;28;20378;-67
2021/06/05 01:05:25;;;;;;;42.75;35.83;;;;;;;;;;5015561;28;20160;-67
2021/06/05 01:07:51;;;;;;;45.78;36.35;;;;;;;;;;5033685;28;20160;-67
2021/06/05 01:10:24;;;;;;;45.72;38.45;;;;;;;;;;5033258;28;20025;-70
2021/06/05 01:12:56;;;;;;;47.80;38.25;;;;;;;;;;5033164;28;20101;-68
2021/06/05 01:15:39;;;;;;;47.22;39.03;;;;;;;;;;5033266;28;20370;-69
2021/06/05 01:18:15;;;;;;;47.15;39.67;;;;;;;;;;5033421;28;20045;-66
2021/06/05 01:21:06;;;;;;;44.70;39.50;;;;;;;;;;5015531;28;20497;-67
2021/06/05 01:23:43;;;;;;;45.25;38.63;;;;;;;;;;5015143;28;20040;-69
2021/06/05 01:26:15;;;;;;;46.55;37.53;;;;;;;;;;5017147;28;20482;-67
2021/06/05 01:28:48;;;;;;;46.38;37.58;;;;;;;;;;5016268;28;20021;-68
2021/06/05 01:31:17;;;;;;;53.30;40.22;;;;;;;;;;5033969;28;20021;-68
2021/06/05 01:33:42;;;;;;;;;;;;;;;;;;5016282;28;20116;-69
2021/06/05 01:36:10;;;;;;;47.05;37.53;;;;;;;;;;5032899;28;19988;-69
2021/06/05 01:38:37;;;;;;;47.22;39.53;;;;;;;;;;5015050;28;20033;-67
2021/06/05 01:41:03;;;;;;;44.00;37.63;;;;;;;;;;5015133;28;20451;-68
2021/06/05 01:43:29;;;;;;;46.05;39.83;;;;;;;;;;5015320;28;20398;-68
2021/06/05 01:45:57;;;;;;;47.15;37.42;;;;;;;;;;5033996;28;20038;-69
2021/06/05 01:48:23;;;;;;;46.08;37.53;;;;;;;;;;5015855;28;20025;-69
2021/06/05 01:50:50;;;;;;;45.00;37.38;;;;;;;;;;5015955;28;20402;-71
2021/06/05 01:53:22;;;;;;;43.78;37.03;;;;;;;;;;5015282;28;20572;-66
2021/06/05 01:55:51;;;;;;;45.00;38.55;;;;;;;;;;5015573;28;20033;-68
2021/06/05 01:58:18;;;;;;;49.03;37.88;;;;;;;;;;5033343;28;20033;-66
2021/06/05 02:00:49;;;;;;;47.75;39.85;;;;;;;;;;5016002;28;20032;-67
2021/06/05 02:03:16;;;;;;;47.95;40.63;;;;;;;;;;5015519;28;20500;-68
2021/06/05 02:05:42;;;;;;;51.30;41.13;;;;;;;;;;5015476;28;20022;-68
2021/06/05 02:08:09;;;;;;;52.00;43.40;;;;;;;;;;5015875;28;20047;-67
2021/06/05 02:10:36;;;;;;;50.63;42.72;;;;;;;;;;5015855;28;20040;-68
2021/06/05 02:13:03;;;;;;;49.75;41.63;;;;;;;;;;5015631;28;20378;-66
2021/06/05 02:15:29;;;;;;;50.45;41.10;;;;;;;;;;5015758;28;20385;-67
2021/06/05 02:17:56;;;;;;;49.63;42.10;;;;;;;;;;5033029;28;20029;-68
2021/06/05 02:20:24;;;;;;;54.20;43.10;;;;;;;;;;5015348;28;20026;-68
2021/06/05 02:22:51;;;;;;;53.17;43.45;;;;;;;;;;5015348;28;20193;-67
2021/06/05 02:25:19;;;;;;;50.63;41.03;;;;;;;;;;5032455;28;20078;-68
2021/06/05 02:27:45;;;;;;;50.47;40.30;;;;;;;;;;5032929;28;20086;-69
2021/06/05 02:30:14;;;;;;;48.38;39.67;;;;;;;;;;5015063;28;20025;-68
2021/06/05 02:32:40;;;;;;;;;;;;;;;;;;5032186;28;20035;-67
2021/06/05 02:35:11;;;;;;;47.13;37.80;;;;;;;;;;5032603;28;20299;-67
2021/06/05 02:37:37;;;;;;;49.50;39.22;;;;;;;;;;5032543;28;20032;-68
2021/06/05 02:40:07;;;;;;;46.58;39.05;;;;;;;;;;5032861;28;20021;-67
2021/06/05 02:42:33;;;;;;;48.17;37.35;;;;;;;;;;5014571;28;20032;-69
2021/06/05 02:45:00;;;;;;;47.55;38.28;;;;;;;;;;5032760;28;20025;-68
2021/06/05 02:47:27;;;;;;;50.65;37.83;;;;;;;;;;5014736;28;20021;-67
2021/06/05 02:49:53;;;;;;;44.65;37.70;;;;;;;;;;5032531;28;20540;-67
2021/06/05 02:52:29;;;;;;;46.97;36.67;;;;;;;;;;5014623;28;20021;-67
2021/06/05 02:55:05;;;;;;;45.45;37.17;;;;;;;;;;5032630;28;20028;-68
2021/06/05 02:57:31;;;;;;;46.22;35.50;;;;;;;;;;5014413;28;20392;-67
2021/06/05 02:59:57;;;;;;;47.92;38.42;;;;;;;;;;5032230;28;20493;-67
2021/06/05 03:02:24;;;;;;;45.10;38.42;;;;;;;;;;5031794;28;20101;-68
2021/06/05 03:04:50;;;;;;;49.30;39.85;;;;;;;;;;5032401;28;20029;-67
2021/06/05 03:07:16;;;;;;;47.53;38.88;;;;;;;;;;5031621;28;20700;-66
2021/06/05 03:09:42;;;;;;;46.97;39.28;;;;;;;;;;5032167;28;20029;-68
2021/06/05 03:12:09;;;;;;;46.03;37.28;;;;;;;;;;5014372;28;20078;-69
2021/06/05 03:14:36;;;;;;;51.25;40.03;;;;;;;;;;5032147;28;20017;-68
2021/06/05 03:17:03;;;;;;;47.42;38.70;;;;;;;;;;5014144;28;20551;-71
2021/06/05 03:19:29;;;;;;;48.15;39.53;;;;;;;;;;5014078;28;20030;-70
2021/06/05 03:21:55;;;;;;;47.90;38.95;;;;;;;;;;5031548;28;20549;-68
2021/06/05 03:24:21;;;;;;;44.78;37.00;;;;;;;;;;5014031;28;20018;-69
2021/06/05 03:26:47;;;;;;;46.85;40.92;;;;;;;;;;5031687;28;20389;-70
2021/06/05 03:29:13;;;;;;;49.72;41.08;;;;;;;;;;5031620;28;20022;-69
2021/06/05 03:31:39;;;;;;;53.88;42.22;;;;;;;;;;5014068;28;20048;-71
2021/06/05 03:34:05;;;;;;;60.35;41.80;;;;;;;;;;5014457;28;20049;-69
2021/06/05 03:36:31;;;;;;;52.75;39.88;;;;;;;;;;5014362;28;20040;-68
2021/06/05 03:38:58;;;;;;;51.80;42.42;;;;;;;;;;5018097;28;20025;-69
2021/06/05 03:41:24;;;;;;;53.97;42.92;;;;;;;;;;5035992;28;20033;-70
2021/06/05 03:43:50;;;;;;;53.33;40.70;;;;;;;;;;5035824;28;20026;-67
2021/06/05 03:46:16;;;;;;;49.08;40.97;;;;;;;;;;5018245;28;20022;-69
2021/06/05 03:48:42;;;;;;;48.53;41.05;;;;;;;;;;5018153;28;20496;-70
2021/06/05 03:51:09;;;;;;;48.72;39.42;;;;;;;;;;5018373;28;20022;-67
2021/06/05 03:53:35;;;;;;;47.65;38.55;;;;;;;;;;5018138;28;20026;-67
2021/06/05 03:56:01;;;;;;;47.95;38.92;;;;;;;;;;5035639;28;20467;-67
2021/06/05 03:58:29;;;;;;;48.15;41.53;;;;;;;;;;5017770;28;20124;-69
2021/06/05 04:00:56;;;;;;;46.72;36.78;;;;;;;;;;5035896;28;20021;-68
2021/06/05 04:03:22;;;;;;;52.47;38.78;;;;;;;;;;5035202;28;20378;-68
2021/06/05 04:05:48;;;;;;;50.47;39.90;;;;;;;;;;5035609;28;20030;-71
2021/06/05 04:08:15;;;;;;;48.10;40.67;;;;;;;;;;5017625;28;20025;-67
2021/06/05 04:10:41;;;;;;;51.08;39.42;;;;;;;;;;5017748;28;20032;-69
2021/06/05 04:13:07;;;;;;;46.65;38.42;;;;;;;;;;5035025;28;20036;-70
2021/06/05 04:15:34;;;;;;;48.03;38.70;;;;;;;;;;5035396;28;20347;-69
2021/06/05 04:18:06;;;;;;;47.78;39.85;;;;;;;;;;5035397;28;20057;-67
2021/06/05 04:20:32;;;;;;;52.63;41.65;;;;;;;;;;5035439;28;20029;-66
2021/06/05 04:22:58;;;;;;;49.33;39.78;;;;;;;;;;5017677;28;20032;-66
2021/06/05 04:25:24;;;;;;;49.22;39.38;;;;;;;;;;5035442;28;20022;-68
2021/06/05 04:27:51;;;;;;;46.67;38.40;;;;;;;;;;5017394;28;20496;-69
2021/06/05 04:30:17;;;;;;;48.85;39.50;;;;;;;;;;5017585;28;20061;-68
2021/06/05 04:32:44;;;;;;;47.67;38.33;;;;;;;;;;5017290;28;20025;-67
2021/06/05 04:35:10;;;;;;;50.72;40.28;;;;;;;;;;5035188;28;20500;-69
2021/06/05 04:37:36;;;;;;;46.80;38.67;;;;;;;;;;5017201;28;20033;-67
2021/06/05 04:40:03;;;;;;;44.08;35.67;;;;;;;;;;5034932;28;20045;-68
2021/06/05 04:42:28;;;;;;;46.72;38.55;;;;;;;;;;5034021;28;20026;-69
2021/06/05 04:44:54;;;;;;;43.88;36.10;;;;;;;;;;5017105;28;20437;-68
2021/06/05 04:47:20;;;;;;;44.80;36.28;;;;;;;;;;5017156;28;20120;-68
2021/06/05 04:49:46;;;;;;;44.83;35.83;;;;;;;;;;5016370;28;20447;-69
2021/06/05 04:52:12;;;;;;;43.72;36.67;;;;;;;;;;5016862;28;20116;-68
2021/06/05 04:54:38;;;;;;;45.63;34.38;;;;;;;;;;5034907;28;20091;-68
2021/06/05 04:57:05;;;;;;;45.88;36.97;;;;;;;;;;5034828;28;20061;-69
2021/06/05 04:59:31;;;;;;;44.75;35.58;;;;;;;;;;5016897;28;20076;-69
2021/06/05 05:01:57;;;;;;;44.55;35.30;;;;;;;;;;5016784;28;20025;-69
2021/06/05 05:04:23;;;;;;;45.10;35.90;;;;;;;;;;5034588;28;20096;-70
2021/06/05 05:06:49;;;;;;;42.30;33.90;;;;;;;;;;5016634;28;20022;-70
2021/06/05 05:09:15;;;;;;;42.55;34.40;;;;;;;;;;5034014;28;20124;-69
2021/06/05 05:11:42;;;;;;;42.50;32.97;;;;;;;;;;5034519;28;20101;-68
2021/06/05 05:14:08;;;;;;;41.30;32.83;;;;;;;;;;5034449;28;20489;-67
2021/06/05 05:16:34;;;;;;;40.22;32.22;;;;;;;;;;5034562;28;20029;-68
2021/06/05 05:19:00;;;;;;;40.05;30.98;;;;;;;;;;5033912;28;20032;-68
2021/06/05 05:21:27;;;;;;;39.38;30.65;;;;;;;;;;5034929;28;20097;-68
2021/06/05 05:23:53;;;;;;;39.90;31.10;;;;;;;;;;5037335;28;20030;-68
2021/06/05 05:26:20;;;;;;;39.40;32.17;;;;;;;;;;5037012;28;20025;-71
2021/06/05 05:28:49;;;;;;;39.25;31.27;;;;;;;;;;5018635;28;20044;-70
2021/06/05 05:31:16;;;;;;;41.10;29.98;;;;;;;;;;5017051;28;20053;-68
2021/06/05 05:33:43;;;;;;;38.38;30.17;;;;;;;;;;5033963;28;20032;-68
2021/06/05 05:36:11;;;;;;;39.33;31.20;;;;;;;;;;5034267;28;20476;-68
2021/06/05 05:38:37;;;;;;;38.40;28.90;;;;;;;;;;5033923;28;20021;-68
2021/06/05 05:41:11;;;;;;;40.47;31.58;;;;;;;;;;5033731;28;20067;-68
2021/06/05 05:43:37;;;;;;;37.92;31.17;;;;;;;;;;5016141;28;20069;-68
2021/06/05 05:46:04;;;;;;;37.08;30.35;;;;;;;;;;5016089;28;20026;-69
2021/06/05 05:48:30;;;;;;;43.88;29.45;;;;;;;;;;5033706;28;20104;-68
2021/06/05 05:50:56;;;;;;;37.53;30.13;;;;;;;;;;5033558;28;20034;-69
2021/06/05 05:53:22;;;;;;;37.28;29.50;;;;;;;;;;5016001;28;20079;-68
2021/06/05 05:55:48;;;;;;;35.97;27.83;;;;;;;;;;5033491;28;20104;-68
2021/06/05 05:58:16;;;;;;;34.63;29.40;;;;;;;;;;5033288;28;20052;-68
2021/06/05 06:00:43;;;;;;;38.28;29.30;;;;;;;;;;5014749;28;20053;-68
2021/06/05 06:03:09;;;;;;;38.55;29.50;;;;;;;;;;5015431;28;20516;-70
2021/06/05 06:05:36;;;;;;;39.45;30.38;;;;;;;;;;5033227;28;20090;-69
2021/06/05 06:08:03;;;;;;;36.40;27.98;;;;;;;;;;5014959;28;20036;-67
2021/06/05 06:10:29;;;;;;;38.70;29.77;;;;;;;;;;5033647;28;20032;-66
2021/06/05 06:12:55;;;;;;;38.35;30.35;;;;;;;;;;5033142;28;20493;-67
2021/06/05 06:15:22;;;;;;;37.20;28.92;;;;;;;;;;5015270;28;20124;-67
2021/06/05 06:17:49;;;;;;;37.55;28.80;;;;;;;;;;5015076;28;20481;-67
2021/06/05 06:20:24;;;;;;;37.40;30.15;;;;;;;;;;5033011;28;20017;-67
2021/06/05 06:22:50;;;;;;;38.30;29.92;;;;;;;;;;5032851;28;20316;-67
2021/06/05 06:25:19;;;;;;;35.13;29.10;;;;;;;;;;5032799;28;20032;-66
2021/06/05 06:27:45;;;;;;;38.38;30.85;;;;;;;;;;5014416;28;20401;-67
2021/06/05 06:30:12;;;;;;;37.08;30.25;;;;;;;;;;5015111;28;20025;-67
2021/06/05 06:32:40;;;;;;;34.65;28.02;;;;;;;;;;5032599;28;20025;-67
2021/06/05 06:35:06;;;;;;;35.75;29.02;;;;;;;;;;5014862;28;20030;-68
2021/06/05 06:37:33;;;;;;;38.20;29.15;;;;;;;;;;5014532;28;20129;-68
2021/06/05 06:39:59;;;;;;;35.10;29.55;;;;;;;;;;5014768;28;20065;-68
2021/06/05 06:42:25;;;;;;;39.00;31.40;;;;;;;;;;5032417;28;20052;-70
2021/06/05 06:44:51;;;;;;;40.95;31.13;;;;;;;;;;5014680;28;20021;-67
2021/06/05 06:47:17;;;;;;;38.13;29.23;;;;;;;;;;5010180;28;20017;-55
2021/06/05 06:49:43;;;;;;;40.25;32.47;;;;;;;;;;5020565;28;20033;-57
2021/06/05 06:52:09;;;;;;;38.55;33.00;;;;;;;;;;5022903;28;20444;-57
2021/06/05 06:54:34;;;;;;;41.03;32.15;;;;;;;;;;5012989;28;20036;-58
2021/06/05 06:57:00;;;;;;;38.83;31.45;;;;;;;;;;5014131;28;20394;-55
2021/06/05 06:59:26;;;;;;;36.33;30.63;;;;;;;;;;5012101;28;20159;-59
2021/06/05 07:01:52;;;;;;;34.63;28.95;;;;;;;;;;5012254;28;20022;-58
2021/06/05 07:04:18;;;;;;;38.60;30.48;;;;;;;;;;5001245;28;20026;-58
2021/06/05 07:06:44;;;;;;;37.42;30.40;;;;;;;;;;4994521;28;20029;-60
2021/06/05 07:09:11;;;;;;;39.17;32.47;;;;;;;;;;4994240;28;20088;-61
2021/06/05 07:11:37;;;;;;;38.60;32.28;;;;;;;;;;4993140;28;20036;-60
2021/06/05 07:14:06;;;;;;;42.60;34.20;;;;;;;;;;5012132;28;20064;-60
2021/06/05 07:16:32;;;;;;;;;;;;;;;;;;4994977;28;20041;-60
2021/06/05 07:18:58;;;;;;;43.85;32.42;;;;;;;;;;5011879;28;20030;-58
2021/06/05 07:21:24;;;;;;;40.42;32.78;;;;;;;;;;5018909;28;20026;-59
2021/06/05 07:23:51;;;;;;;39.42;32.28;;;;;;;;;;5031641;28;20532;-60
2021/06/05 07:26:19;;;;;;;37.60;30.65;;;;;;;;;;5014741;28;20029;-64
2021/06/05 07:28:48;;;;;;;40.72;32.17;;;;;;;;;;5013864;28;20036;-64
2021/06/05 07:31:14;;;;;;;;;;;;;;;;;;5032148;28;20033;-65
2021/06/05 07:33:43;;;;;;;42.08;34.33;;;;;;;;;;5031613;28;19905;-65
2021/06/05 07:36:10;;;;;;;43.05;33.92;;;;;;;;;;5013480;28;20021;-65
2021/06/05 07:38:36;;;;;;;42.60;31.70;;;;;;;;;;5031730;28;20030;-65
2021/06/05 07:41:02;;;;;;;42.90;34.47;;;;;;;;;;5031222;28;20034;-64
2021/06/05 07:43:29;;;;;;;44.00;33.75;;;;;;;;;;5031464;28;20048;-65
2021/06/05 07:45:55;;;;;;;39.72;31.63;;;;;;;;;;5031369;28;20021;-64
2021/06/05 07:48:22;;;;;;;41.33;30.00;;;;;;;;;;5031347;28;20025;-64
2021/06/05 07:50:48;;;;;;;38.17;31.10;;;;;;;;;;5013579;28;20079;-65
2021/06/05 07:53:14;;;;;;;38.58;30.52;;;;;;;;;;5013448;28;20079;-65
2021/06/05 07:55:42;;;;;;;41.38;29.08;;;;;;;;;;5031556;28;20061;-64
2021/06/05 07:58:08;;;;;;;36.53;28.52;;;;;;;;;;5031481;28;20060;-64
2021/06/05 08:00:35;;;;;;;39.15;30.30;;;;;;;;;;5031912;28;20451;-64
2021/06/05 08:03:01;;;;;;;39.00;29.25;;;;;;;;;;5031139;28;20025;-64
2021/06/05 08:05:28;;;;;;;38.70;29.13;;;;;;;;;;5031361;28;20029;-66
2021/06/05 08:07:54;;;;;;;38.20;29.67;;;;;;;;;;5013742;28;20025;-66
2021/06/05 08:10:21;;;;;;;39.05;29.08;;;;;;;;;;5013225;28;20028;-67
2021/06/05 08:12:47;;;;;;;35.88;28.63;;;;;;;;;;5013267;28;20029;-67
2021/06/05 08:15:15;;;;;;;40.05;31.02;;;;;;;;;;5031257;28;20032;-67
2021/06/05 08:17:41;;;;;;;35.85;28.48;;;;;;;;;;5031315;28;20068;-67
2021/06/05 08:20:08;;;;;;;37.10;28.98;;;;;;;;;;5031422;28;20053;-67
2021/06/05 08:22:35;;;;;;;40.15;30.55;;;23.50;99.90;;;;;;4989589;28;20034;-67
2021/06/05 08:25:02;;;;;;;35.75;28.05;;;21.80;99.90;;;;;;4996522;28;20029;-66
2021/06/05 08:27:28;;;;;;;35.45;29.17;;;21.90;99.90;;;;;;5014396;28;20453;-66
2021/06/05 08:29:54;;;;;;;37.50;29.58;;;22.10;99.90;;;;;;5015134;28;20117;-66
2021/06/05 08:32:21;;;;;;;36.40;28.48;;;22.00;99.90;;;;;;5014663;28;20026;-64
2021/06/05 08:34:47;;;;;;;36.25;30.67;;;21.80;99.90;;;;;;4997161;28;20034;-64
2021/06/05 08:37:12;;;;;;;39.58;29.58;;;21.80;99.90;;;;;;5014950;28;20482;-64
2021/06/05 08:39:38;;;;;;;36.92;29.27;;;22.00;99.90;;;;;;5017983;28;20026;-64
2021/06/05 08:42:07;;;;;;;37.25;28.02;;;21.90;99.90;;;;;;5024029;28;20029;-65
2021/06/05 08:44:39;;;;;;;41.15;33.33;;;22.20;99.90;;;;;;5023970;28;20029;-63
2021/06/05 08:47:07;;;;;;;38.67;32.13;;;22.10;99.90;;;;;;5024470;28;20482;-63
2021/06/05 08:49:40;;;;;;;38.75;31.17;;;21.70;99.90;;;;;;5007583;28;20078;-63
2021/06/05 08:52:32;;;;;;;44.33;34.80;;;21.80;99.90;;;;;;5024911;28;20037;-63
2021/06/05 08:55:45;;;;;;;42.10;34.70;;;21.60;99.90;;;;;;5022167;28;20482;-63
2021/06/05 08:58:39;;;;;;;42.78;35.70;;;21.50;99.90;;;;;;4991783;28;20544;-64
2021/06/05 09:01:07;;;;;;;47.35;39.03;;;21.60;99.90;;;;;;5002030;28;20125;-64
2021/06/05 09:03:36;;;;;;;45.95;35.15;;;21.30;99.90;;;;;;5014338;28;20030;-64
2021/06/05 09:06:09;;;;;;;43.05;36.88;;;21.20;99.90;;;;;;4997086;28;20486;-65
2021/06/05 09:08:35;;;;;;;44.33;36.70;;;21.60;99.90;;;;;;4997690;28;20057;-65
2021/06/05 09:11:04;;;;;;;45.63;37.28;;;21.70;99.90;;;;;;5014992;28;20072;-64
2021/06/05 09:13:29;;;;;;;;;;;21.90;99.90;;;;;;4997302;28;20033;-65
2021/06/05 09:16:23;;;;;;;42.42;34.40;;;22.30;99.90;;;;;;5014111;28;19909;-64
2021/06/05 09:19:01;;;;;;;43.45;37.28;;;22.60;99.90;;;;;;4996205;28;20029;-64
2021/06/05 09:21:33;;;;;;;40.78;34.58;;;22.70;99.90;;;;;;5014318;28;20045;-65
2021/06/05 09:24:44;;;;;;;43.53;35.92;;;22.70;99.90;;;;;;5013785;28;20022;-64
2021/06/05 09:27:12;;;;;;;46.83;36.28;;;22.40;99.90;;;;;;5003197;28;20042;-65
2021/06/05 09:29:47;;;;;;;42.28;34.97;;;22.70;99.90;;;;;;5013863;28;20026;-65
2021/06/05 09:32:16;;;;;;;42.42;36.65;;;22.90;99.90;;;;;;5016504;28;21092;-65
2021/06/05 09:34:49;;;;;;;42.58;36.20;;;23.00;99.90;;;;;;5005101;28;20441;-64
2021/06/05 09:37:42;;;;;;;43.25;36.38;;;22.90;99.90;;;;;;5022199;28;20018;-64
2021/06/05 09:40:22;;;;;;;44.97;35.90;;;23.00;99.90;;;;;;4996819;28;20053;-64
2021/06/05 09:43:15;;;;;;;42.05;36.20;;;23.00;99.90;;;;;;5013643;28;20025;-65
2021/06/05 09:45:47;;;;;;;42.60;34.50;;;22.90;99.90;;;;;;5008059;28;20070;-65
2021/06/05 09:48:43;;;;;;;43.45;35.53;;;23.10;99.90;;;;;;5016565;28;20026;-65
2021/06/05 09:51:27;;;;;;;44.42;35.80;;;23.20;99.90;;;;;;5023580;28;20044;-65
2021/06/05 09:54:27;;;;;;;40.35;34.78;;;23.60;99.90;;;;;;5021100;28;20061;-66
2021/06/05 09:56:53;;;;;;;40.70;35.17;;;23.80;99.90;;;;;;5018266;28;20033;-65
2021/06/05 09:59:29;;;;;;;44.20;34.00;;;23.80;99.90;;;;;;5032027;28;20030;-64
2021/06/05 10:02:05;;;;;;;39.17;31.90;;;23.70;99.90;;;;;;5030923;28;20029;-64
2021/06/05 10:04:34;;;;;;;35.83;30.25;;;23.90;99.90;;;;;;5031345;28;20071;-64
2021/06/05 10:07:01;;;;;;;36.28;31.88;;;24.00;99.90;;;;;;5030963;28;20048;-65
2021/06/05 10:09:27;;;;;;;36.50;31.70;;;24.10;99.90;;;;;;5013472;28;20029;-65
2021/06/05 10:12:21;;;;;;;36.80;31.75;;;23.80;99.90;;;;;;5031582;28;20030;-66
2021/06/05 10:14:58;;;;;;;38.97;32.53;;;23.80;99.90;;;;;;5032334;28;20025;-63
2021/06/05 10:17:34;;;;;;;39.22;33.05;;;23.40;99.90;;;;;;5014992;28;20481;-64
2021/06/05 10:20:18;;;;;;;38.75;33.20;;;23.10;99.90;;;;;;5032874;28;20489;-64
2021/06/05 10:22:45;;;;;;;38.60;33.20;;;23.40;99.90;;;;;;5032670;28;20441;-64
2021/06/05 10:25:48;;;;;;;40.00;33.72;;;23.40;99.90;;;;;;5032470;28;20050;-64
2021/06/05 10:28:21;;;;;;;42.63;33.13;;;23.10;99.90;;;;;;5032624;28;20095;-63
2021/06/05 10:31:12;;;;;;;42.70;34.08;;;22.90;99.90;;;;;;5014762;28;20036;-63
2021/06/05 10:33:42;;;;;;;46.42;35.92;;;23.00;99.90;;;;;;5026222;28;20405;-64
2021/06/05 10:36:15;;;;;;;40.70;34.75;;;22.90;99.90;;;;;;5014701;28;20049;-64
2021/06/05 10:38:47;;;;;;;40.17;32.83;;;22.90;99.90;;;;;;5032626;28;20033;-64
2021/06/05 10:41:20;;;;;;;40.97;34.58;;;23.20;99.90;;;;;;5032198;28;20017;-64
2021/06/05 10:43:46;;;;;;;39.45;32.35;;;23.20;99.90;;;;;;5014285;28;20025;-64
2021/06/05 10:46:22;;;;;;;36.25;29.85;;;23.50;99.90;;;;;;5031756;28;20022;-64
2021/06/05 10:48:50;;;;;;;38.78;32.15;;;23.70;99.90;;;;;;5014256;28;20026;-64
2021/06/05 10:51:26;;;;;;;41.60;32.70;;;23.80;99.90;;;;;;5014400;28;20114;-64
2021/06/05 10:54:02;;;;;;;38.33;31.92;;;23.80;99.90;;;;;;5031935;28;20026;-64
2021/06/05 10:56:41;;;;;;;39.42;33.28;;;23.50;99.90;;;;;;5014058;28;20121;-64
2021/06/05 10:59:32;;;;;;;40.65;33.13;;;23.40;99.90;;;;;;5013880;28;20029;-64
2021/06/05 11:01:58;;;;;;;42.28;34.78;;;23.00;99.90;;;;;;5020909;28;20052;-64
2021/06/05 11:04:32;;;;;;;40.08;33.88;;;22.90;99.90;;;;;;5032102;28;20024;-64
2021/06/05 11:07:04;;;;;;;40.20;32.88;;;23.30;99.90;;;;;;5014306;28;20017;-64
2021/06/05 11:09:30;;;;;;;37.78;30.63;;;23.60;99.90;;;;;;4684208;28;10000729;-64
2021/06/05 11:12:04;;;;;;;38.28;33.35;;;23.90;99.90;;;;;;5008511;28;20078;-64
2021/06/05 11:14:35;;;;;;;37.83;32.03;;;24.10;99.90;;;;;;5009152;28;20022;-65
2021/06/05 11:17:01;;;;;;;38.35;32.83;;;24.20;99.90;;;;;;5009045;28;20021;-64
2021/06/05 11:19:30;;;;;;;38.05;32.35;;;24.30;99.90;;;;;;5008738;28;20036;-64
2021/06/05 11:22:31;;;;;;;37.33;31.77;;;24.50;99.90;;;;;;5009031;28;20053;-64
2021/06/05 11:25:20;;;;;;;39.78;34.70;;;24.30;99.90;;;;;;4949160;28;20033;-64
2021/06/05 11:27:52;;;;;;;37.45;31.33;;;23.30;99.90;;;;;;4998236;28;20076;-64
2021/06/05 11:30:20;;;;;;;40.95;33.58;;;23.10;99.90;;;;;;5009089;28;20026;-64
2021/06/05 11:33:09;;;;;;;40.15;33.05;;;23.10;99.90;;;;;;5009161;28;20065;-64
2021/06/05 11:35:52;;;;;;;40.58;34.20;;;23.00;99.90;;;;;;5008456;28;20026;-64
2021/06/05 11:38:17;;;;;;;36.97;32.10;;;22.90;99.90;;;;;;4991453;28;20032;-64
2021/06/05 11:41:03;;;;;;;38.58;31.25;;;22.80;99.90;;;;;;5009194;28;20030;-64
2021/06/05 11:43:28;;;;;;;32.42;28.10;;;22.80;99.90;;;;;;5008808;28;20018;-64
2021/06/05 11:46:33;;;;;;;32.17;27.20;;;23.20;99.90;;;;;;4991398;28;20022;-64
2021/06/05 11:49:01;;;;;;;32.05;27.70;;;23.30;99.90;;;;;;5004825;28;20033;-63
2021/06/05 11:51:32;;;;;;;37.20;31.85;;;23.20;99.90;;;;;;5028962;28;20429;-64
2021/06/05 11:54:15;;;;;;;34.35;29.23;;;23.60;99.90;;;;;;5001660;28;20033;-64
2021/06/05 11:56:52;;;;;;;37.15;30.63;;;23.60;99.90;;;;;;5003545;28;20025;-64
2021/06/05 11:59:42;;;;;;;38.38;29.38;;;23.70;99.90;;;;;;5013287;28;20032;-64
2021/06/05 12:02:28;;;;;;;37.43;29.90;;;23.60;99.90;;;;;;4671568;28;10000324;-64
2021/06/05 12:05:04;;;;;;;34.45;28.20;;;23.60;99.90;;;;;;4995248;28;20728;-63
2021/06/05 12:07:31;;;;;;;34.10;26.10;;;23.80;99.90;;;;;;5012912;28;20049;-64
2021/06/05 12:10:00;;;;;;;31.50;26.27;;;23.90;99.90;;;;;;4994823;28;20030;-64
2021/06/05 12:12:36;;;;;;;33.30;24.30;;;24.30;99.90;;;;;;4994693;28;20033;-66
2021/06/05 12:15:08;;;;;;;27.88;22.48;;;24.80;99.90;;;;;;4995302;28;20029;-66
2021/06/05 12:17:42;;;;;;;28.23;22.80;;;25.50;99.90;;;;;;5012341;28;20509;-63
2021/06/05 12:20:10;;;;;;;30.85;25.38;;;25.90;99.90;;;;;;4994621;28;20334;-63
2021/06/05 12:22:36;;;;;;;33.20;28.13;;;25.60;99.90;;;;;;5012274;28;20101;-65
2021/06/05 12:25:03;;;;;;;33.95;28.00;;;25.00;99.90;;;;;;4994485;28;20022;-65
2021/06/05 12:27:35;;;;;;;36.28;28.63;;;25.40;99.90;;;;;;5012113;28;20037;-65
2021/06/05 12:30:23;;;;;;;34.25;28.13;;;25.00;99.90;;;;;;5012058;28;20486;-65
2021/06/05 12:33:01;;;;;;;31.92;27.55;;;24.50;99.90;;;;;;4978110;28;20033;-64
2021/06/05 12:35:33;;;;;;;34.33;29.63;;;24.40;99.90;;;;;;5012054;28;20030;-64
2021/06/05 12:38:00;;;;;;;39.08;29.77;;;24.30;99.90;;;;;;4994059;28;20036;-64
2021/06/05 12:41:00;;;;;;;35.53;29.48;;;24.10;99.90;;;;;;4994255;28;20116;-64
2021/06/05 12:43:33;;;;;;;34.50;28.40;;;24.50;99.90;;;;;;4968890;28;20417;-64
2021/06/05 12:46:20;;;;;;;35.47;28.60;;;25.00;99.90;;;;;;5011734;28;20022;-64
2021/06/05 12:48:47;;;;;;;31.53;26.37;;;24.90;99.90;;;;;;5002260;28;20529;-65
2021/06/05 12:51:21;;;;;;;33.08;26.98;;;25.70;99.90;;;;;;5028233;28;20288;-65
2021/06/05 12:54:01;;;;;;;34.30;27.90;;;26.40;99.90;;;;;;5020180;28;20060;-65
2021/06/05 12:56:35;;;;;;;34.15;29.38;;;26.40;99.90;;;;;;5019932;28;20026;-65
2021/06/05 12:59:05;;;;;;;38.30;31.80;;;25.80;99.90;;;;;;5002042;28;20037;-65
2021/06/05 13:01:36;;;;;;;40.53;31.92;;;25.10;99.90;;;;;;5000761;28;20749;-65
2021/06/05 13:04:04;;;;;;;36.80;31.70;;;24.50;99.90;;;;;;5002862;28;20394;-65
2021/06/05 13:06:58;;;;;;;37.47;31.35;;;23.90;99.90;;;;;;5019945;28;20017;-65
2021/06/05 13:09:32;;;;;;;40.53;33.55;;;23.80;99.90;;;;;;5020571;28;20037;-65
2021/06/05 13:12:04;;;;;;;42.72;35.08;;;23.60;99.90;;;;;;5002486;28;20519;-65
2021/06/05 13:14:34;;;;;;;47.38;36.75;;;;;;;;;;5004925;28;20525;-64
2021/06/05 13:17:07;;;;;;;46.35;37.40;;;;;;;;;;5031206;28;20041;-64
2021/06/05 13:19:33;;;;;;;43.92;36.67;;;;;;;;;;5031074;28;20033;-65
2021/06/05 13:22:04;;;;;;;44.15;35.42;;;;;;;;;;5013218;28;20025;-65
2021/06/05 13:24:30;;;;;;;43.30;35.58;;;;;;;;;;5030773;28;20028;-65
2021/06/05 13:27:12;;;;;;;44.22;36.90;;;;;;;;;;5023526;23;20041;-65
2021/06/05 13:29:40;;;;;;;44.08;33.80;;;;;;;;;;5029092;28;20116;-65
2021/06/05 13:32:06;;;;;;;45.42;35.90;;;;;;;;;;5013523;28;20052;-64
2021/06/05 13:34:44;;;;;;;43.50;35.85;;;;;;;;;;5013136;28;20025;-65
2021/06/05 13:37:23;;;;;;;44.38;36.42;;;;;;;;;;4993044;28;20500;-64
2021/06/05 13:39:49;;;;;;;;;;;;;;;;;;5019499;28;20026;-65
2021/06/05 13:42:15;;;;;;;50.17;39.85;;;;;;;;;;5021742;28;19905;-64
2021/06/05 13:44:42;;;;;;;54.15;42.08;;;;;;;;;;5005532;28;20105;-64
2021/06/05 13:47:09;;;;;;;53.65;46.83;;;;;;;;;;5021847;28;20155;-65
2021/06/05 13:49:35;;;;;;;56.60;44.95;;;;;;;;;;5001793;28;20045;-63
2021/06/05 13:52:27;;;;;;;51.17;43.83;;;;;;;;;;5005815;28;20088;-64
2021/06/05 13:54:53;;;;;;;47.75;41.05;;;;;;;;;;5032516;28;20025;-65
2021/06/05 13:57:19;;;;;;;40.10;35.38;;;23.10;99.90;;;;;;5014008;28;20041;-65